createdAt,value
2022-10-12T03:00:32.246Z,82.13
2022-10-12T03:03:00.691Z,81.77
2022-10-12T03:05:29.038Z,82.04
2022-10-12T03:07:57.449Z,82.27
2022-10-12T03:10:26.004Z,82.40
2022-10-12T03:12:55.239Z,82.32
2022-10-12T03:15:23.655Z,82.48
2022-10-12T03:17:54.883Z,82.56
2022-10-12T03:20:23.299Z,82.38
2022-10-12T03:22:51.748Z,82.64
2022-10-12T03:25:20.182Z,82.42
2022-10-12T03:27:48.657Z,82.54
2022-10-12T03:30:17.331Z,82.50
2022-10-12T03:32:45.705Z,83.12
2022-10-12T03:35:15.707Z,86.84
2022-10-12T03:37:44.038Z,85.97
2022-10-12T03:40:13.943Z,85.67
2022-10-12T03:42:42.277Z,82.74
2022-10-12T03:45:11.867Z,83.44
2022-10-12T03:47:40.638Z,81.46
2022-10-12T03:50:10.348Z,80.25
2022-10-12T03:52:40.057Z,80.62
2022-10-12T03:55:09.343Z,81.25
2022-10-12T03:57:38.438Z,81.71
2022-10-12T04:00:08.776Z,82.00
2022-10-12T04:02:39.981Z,82.62
2022-10-12T04:05:09.116Z,83.17
2022-10-12T04:07:39.324Z,82.98
2022-10-12T04:10:09.432Z,83.47
2022-10-12T04:12:37.828Z,83.15
2022-10-12T04:15:08.068Z,84.03
2022-10-12T04:17:36.778Z,84.57
2022-10-12T04:20:07.017Z,84.78
2022-10-12T04:22:35.717Z,84.97
2022-10-12T04:25:06.700Z,85.53
2022-10-12T04:27:35.333Z,85.61
2022-10-12T04:30:03.976Z,85.91
2022-10-12T04:32:32.481Z,85.63
2022-10-12T04:35:00.921Z,86.00
2022-10-12T04:37:29.399Z,85.69
2022-10-12T04:39:57.822Z,85.71
2022-10-12T04:42:27.648Z,85.74
2022-10-12T04:44:56.107Z,86.26
2022-10-12T04:47:24.513Z,86.02
2022-10-12T04:49:52.887Z,85.75
2022-10-12T04:52:21.360Z,86.02
2022-10-12T04:54:49.885Z,86.28
2022-10-12T04:57:18.285Z,86.06
2022-10-12T04:59:48.121Z,85.88
2022-10-12T05:02:16.494Z,86.08
2022-10-12T05:04:44.883Z,86.35
2022-10-12T05:07:13.448Z,86.33
2022-10-12T05:09:41.837Z,86.46
2022-10-12T05:12:10.242Z,86.72
2022-10-12T05:14:38.879Z,86.69
2022-10-12T05:17:08.587Z,86.47
2022-10-12T05:19:36.979Z,86.86
2022-10-12T05:22:05.378Z,86.63
2022-10-12T05:24:33.849Z,86.91
2022-10-12T05:27:03.070Z,87.07
2022-10-12T05:29:31.494Z,87.06
2022-10-12T05:31:59.982Z,86.66
2022-10-12T05:34:29.751Z,86.74
2022-10-12T05:36:58.738Z,86.95
2022-10-12T05:39:27.712Z,86.88
2022-10-12T05:41:56.109Z,86.98
2022-10-12T05:44:24.569Z,86.88
2022-10-12T05:46:53.427Z,86.79
2022-10-12T05:49:22.327Z,87.05
2022-10-12T05:51:52.418Z,86.88
2022-10-12T05:54:22.005Z,87.57
2022-10-12T05:56:50.464Z,87.65
2022-10-12T05:59:18.862Z,87.55
2022-10-12T06:01:48.062Z,87.42
2022-10-12T06:04:16.557Z,87.39
2022-10-12T06:06:44.920Z,87.59
2022-10-12T06:09:14.851Z,87.47
2022-10-12T06:11:43.302Z,87.10
2022-10-12T06:14:11.870Z,86.93
2022-10-12T06:16:40.180Z,86.84
2022-10-12T06:19:08.623Z,86.78
2022-10-12T06:21:37.000Z,86.63
2022-10-12T06:24:05.944Z,86.39
2022-10-12T06:26:35.704Z,86.21
2022-10-12T06:29:04.215Z,85.96
2022-10-12T06:31:33.934Z,86.12
2022-10-12T06:34:02.478Z,85.39
2022-10-12T06:36:30.779Z,84.82
2022-10-12T06:38:59.283Z,85.10
2022-10-12T06:41:27.858Z,84.88
2022-10-12T06:43:57.651Z,84.69
2022-10-12T06:46:26.041Z,84.14
2022-10-12T06:48:54.513Z,83.88
2022-10-12T06:51:22.922Z,82.89
2022-10-12T06:53:51.265Z,82.79
2022-10-12T06:56:19.619Z,82.99
2022-10-12T06:58:47.991Z,81.90
2022-10-12T07:01:17.808Z,81.68
2022-10-12T07:03:46.179Z,81.46
2022-10-12T07:06:16.015Z,81.52
2022-10-12T07:08:44.852Z,80.97
2022-10-12T07:11:15.158Z,81.14
2022-10-12T07:13:43.633Z,81.88
2022-10-12T07:16:12.055Z,81.38
2022-10-12T07:18:42.075Z,81.02
2022-10-12T07:21:10.402Z,81.56
2022-10-12T07:23:42.502Z,81.61
2022-10-12T07:26:13.458Z,81.21
2022-10-12T07:28:41.893Z,81.57
2022-10-12T07:31:11.083Z,81.74
2022-10-12T07:33:41.341Z,81.17
2022-10-12T07:36:14.204Z,81.07
2022-10-12T07:38:45.426Z,82.66
2022-10-12T07:41:15.062Z,82.46
2022-10-12T07:43:43.679Z,82.15
2022-10-12T07:46:12.991Z,79.67
2022-10-12T07:48:48.931Z,78.97
2022-10-12T07:51:18.827Z,79.43
2022-10-12T07:53:47.170Z,79.17
2022-10-12T07:56:16.193Z,79.13
2022-10-12T07:58:49.267Z,78.86
2022-10-12T08:01:18.835Z,78.38
2022-10-12T08:03:48.635Z,78.04
2022-10-12T08:06:20.086Z,77.85
2022-10-12T08:08:49.177Z,77.61
2022-10-12T08:11:18.098Z,77.17
2022-10-12T08:13:47.380Z,76.16
2022-10-12T08:16:18.904Z,76.00
2022-10-12T08:18:48.952Z,75.74
2022-10-12T08:21:18.898Z,73.52
2022-10-12T08:23:47.886Z,71.18
2022-10-12T08:26:16.909Z,66.40
2022-10-12T08:28:45.639Z,63.88
2022-10-12T08:31:17.667Z,62.69
2022-10-12T08:33:46.445Z,62.35
2022-10-12T08:36:16.877Z,60.41
2022-10-12T08:38:48.609Z,58.50
2022-10-12T08:41:39.425Z,58.77
2022-10-12T08:44:34.713Z,56.94
2022-10-12T08:47:10.661Z,57.24
2022-10-12T08:49:41.069Z,58.00
2022-10-12T08:52:25.583Z,58.12
2022-10-12T08:54:54.718Z,56.93
2022-10-12T08:57:23.068Z,55.65
2022-10-12T08:59:51.431Z,55.20
2022-10-12T09:02:38.826Z,55.84
2022-10-12T09:05:12.225Z,55.66
2022-10-12T09:07:48.901Z,56.68
2022-10-12T09:10:37.094Z,56.00
2022-10-12T09:13:19.997Z,55.88
2022-10-12T09:15:53.969Z,54.94
2022-10-12T09:18:30.569Z,54.75
2022-10-12T09:21:02.707Z,53.90
2022-10-12T09:23:36.491Z,54.09
2022-10-12T09:26:15.084Z,53.68
2022-10-12T09:28:46.120Z,52.84
2022-10-12T09:31:36.657Z,52.91
2022-10-12T09:34:07.787Z,52.26
2022-10-12T09:36:39.254Z,53.26
2022-10-12T09:39:14.812Z,52.89
2022-10-12T09:41:46.277Z,52.52
2022-10-12T09:44:22.650Z,52.95
2022-10-12T09:46:57.074Z,52.96
2022-10-12T09:49:43.634Z,53.29
2022-10-12T09:52:15.288Z,52.59
2022-10-12T09:54:50.623Z,52.73
2022-10-12T09:57:27.645Z,51.36
2022-10-12T09:59:56.641Z,52.73
2022-10-12T10:02:26.289Z,53.99
2022-10-12T10:04:56.058Z,53.76
2022-10-12T10:07:29.778Z,52.23
2022-10-12T10:10:29.774Z,52.04
2022-10-12T10:13:03.047Z,51.74
2022-10-12T10:15:34.117Z,51.95
2022-10-12T10:18:06.624Z,54.26
2022-10-12T10:20:43.581Z,53.58
2022-10-12T10:23:25.850Z,52.27
2022-10-12T10:26:04.384Z,52.59
2022-10-12T10:28:35.141Z,52.92
2022-10-12T10:31:06.463Z,53.04
2022-10-12T10:33:37.098Z,51.38
2022-10-12T10:36:13.131Z,49.91
2022-10-12T10:38:56.727Z,50.56
2022-10-12T10:41:31.639Z,51.82
2022-10-12T10:44:00.062Z,51.37
2022-10-12T10:46:32.666Z,53.23
2022-10-12T10:49:06.675Z,53.64
2022-10-12T10:51:48.576Z,53.95
2022-10-12T10:54:27.423Z,53.48
2022-10-12T10:57:02.985Z,52.33
2022-10-12T10:59:43.104Z,51.24
2022-10-12T11:02:25.974Z,51.04
2022-10-12T11:05:03.493Z,51.28
2022-10-12T11:07:37.525Z,50.40
2022-10-12T11:10:17.215Z,51.75
2022-10-12T11:12:52.312Z,51.25
2022-10-12T11:15:26.209Z,51.11
2022-10-12T11:18:04.469Z,51.22
2022-10-12T11:20:42.877Z,53.23
2022-10-12T11:23:20.460Z,53.45
2022-10-12T11:26:19.757Z,53.32
2022-10-12T11:28:49.863Z,53.18
2022-10-12T11:31:23.711Z,52.69
2022-10-12T11:33:53.667Z,52.26
2022-10-12T11:36:24.870Z,51.64
2022-10-12T11:38:57.796Z,51.53
2022-10-12T11:41:36.272Z,50.88
2022-10-12T11:44:15.752Z,50.52
2022-10-12T11:46:50.503Z,51.02
2022-10-12T11:49:28.488Z,51.53
2022-10-12T11:52:00.536Z,51.90
2022-10-12T11:54:36.491Z,52.09
2022-10-12T11:57:10.923Z,51.65
2022-10-12T11:59:45.810Z,52.87
